Weather at Bantry Aerodrome

Public forecast

Using degrees Celsius for public forecast. Weather courtesy of forecast.io.

Closest aviation weather report (METAR) to Bantry Aerodrome

Closest report is Kerry Airport, 30.8 nm (57.0 km) N. Retrieved 2022/06/25 17:30 UTC (2 hours ago):

EIKY 251730Z 20015KT 8000 RA SCT015 BKN017 OVC026 11/10 Q0993

Closest aviation forecast (TAF) to Bantry Aerodrome

Closest forecast is Cork Airport, 38.3 nm (71.0 km) ENE. Retrieved 2022/06/25 18:09 UTC (1 hour ago):

TAF TAF EICK 251700Z 2518/2618 23015KT 7000 FEW010 BKN020 TEMPO 2518/2608 23016G26KT 4000 -RA BKN010 PROB40 TEMPO 2518/2608 BKN007 FEW018CB BECMG 2608/2610 26013KT TEMPO 2608/2618 27015G25KT -SHRA FEW018CB PROB40 TEMPO 2608/2612 4000